createdAt,value
2019-04-06T03:36:32.937Z,77.11
2019-04-06T03:39:05.465Z,77.64
2019-04-06T03:41:37.058Z,77.79
2019-04-06T03:44:08.824Z,77.85
2019-04-06T03:46:40.449Z,78.17
2019-04-06T03:49:11.995Z,78.54
2019-04-06T03:51:43.529Z,78.56
2019-04-06T03:54:15.417Z,78.70
2019-04-06T03:56:46.951Z,78.43
2019-04-06T03:59:18.648Z,78.27
2019-04-06T04:01:50.523Z,78.18
2019-04-06T04:04:22.058Z,77.98
2019-04-06T04:06:55.293Z,78.04
2019-04-06T04:09:26.802Z,78.03
2019-04-06T04:11:58.654Z,78.20
2019-04-06T04:14:30.218Z,78.29
2019-04-06T04:17:01.764Z,78.24
2019-04-06T04:19:33.339Z,78.08
2019-04-06T04:22:04.910Z,78.33
2019-04-06T04:24:36.443Z,77.92
2019-04-06T04:27:08.075Z,77.68
2019-04-06T04:29:39.627Z,77.23
2019-04-06T04:32:11.165Z,77.50
2019-04-06T04:34:42.714Z,77.10
2019-04-06T04:37:14.279Z,75.55
2019-04-06T04:39:45.817Z,74.10
2019-04-06T04:42:17.430Z,73.74
2019-04-06T04:44:49.469Z,73.87
2019-04-06T04:47:21.186Z,74.46
2019-04-06T04:49:52.737Z,74.55
2019-04-06T04:52:26.160Z,74.54
2019-04-06T04:54:58.190Z,74.96
2019-04-06T04:57:39.581Z,75.46
2019-04-06T05:00:03.064Z,76.07
2019-04-06T05:02:34.913Z,76.12
2019-04-06T05:05:09.271Z,76.71
2019-04-06T05:07:40.085Z,77.46
2019-04-06T05:10:11.943Z,77.41
2019-04-06T05:12:43.512Z,77.80
2019-04-06T05:15:21.091Z,78.09
2019-04-06T05:17:53.620Z,78.35
2019-04-06T05:20:25.149Z,78.32
2019-04-06T05:22:57.264Z,77.82
2019-04-06T05:25:28.802Z,77.22
2019-04-06T05:28:00.344Z,76.99
2019-04-06T05:30:31.979Z,76.95
2019-04-06T05:33:03.525Z,76.74
2019-04-06T05:35:35.091Z,76.97
2019-04-06T05:38:06.655Z,77.37
2019-04-06T05:40:39.191Z,77.77
2019-04-06T05:43:10.739Z,78.14
2019-04-06T05:45:42.656Z,78.64
2019-04-06T05:48:14.461Z,79.09
2019-04-06T05:50:46.024Z,79.41
2019-04-06T05:53:17.591Z,79.53
2019-04-06T05:55:49.145Z,79.58
2019-04-06T05:58:21.001Z,79.64
2019-04-06T06:00:52.688Z,79.63
2019-04-06T06:03:24.260Z,79.73
2019-04-06T06:05:55.808Z,79.56
2019-04-06T06:08:27.376Z,79.56
2019-04-06T06:10:59.353Z,79.87
2019-04-06T06:13:30.897Z,80.01
2019-04-06T06:16:02.447Z,79.96
2019-04-06T06:18:33.990Z,80.09
2019-04-06T06:21:05.745Z,80.11
2019-04-06T06:23:37.379Z,80.02
2019-04-06T06:26:08.946Z,79.50
2019-04-06T06:28:40.585Z,78.62
2019-04-06T06:31:12.145Z,77.07
2019-04-06T06:33:43.799Z,76.86
2019-04-06T06:36:15.528Z,76.73
2019-04-06T06:38:47.071Z,76.89
2019-04-06T06:41:18.697Z,76.55
2019-04-06T06:43:50.599Z,76.05
2019-04-06T06:46:22.375Z,75.80
2019-04-06T06:48:54.265Z,76.03
2019-04-06T06:51:25.817Z,76.18
2019-04-06T06:53:57.675Z,76.34
2019-04-06T06:56:29.343Z,76.40
2019-04-06T06:59:00.901Z,76.38
2019-04-06T07:01:32.443Z,76.08
2019-04-06T07:04:04.000Z,75.06
2019-04-06T07:06:35.542Z,74.99
2019-04-06T07:09:08.413Z,74.67
2019-04-06T07:11:39.943Z,74.49
2019-04-06T07:14:12.743Z,73.16
2019-04-06T07:16:44.430Z,73.11
2019-04-06T07:19:16.051Z,73.26
2019-04-06T07:21:47.577Z,73.48
2019-04-06T07:24:19.732Z,73.96
2019-04-06T07:26:51.258Z,74.37
2019-04-06T07:29:22.813Z,74.46
2019-04-06T07:31:54.365Z,74.15
2019-04-06T07:34:26.065Z,74.04
2019-04-06T07:36:57.732Z,74.01
2019-04-06T07:39:29.272Z,73.58
2019-04-06T07:42:01.235Z,73.67
2019-04-06T07:44:32.782Z,73.35
2019-04-06T07:47:04.547Z,73.46
2019-04-06T07:49:36.094Z,74.01
2019-04-06T07:52:07.917Z,73.77
2019-04-06T07:54:39.468Z,73.42
2019-04-06T07:57:11.015Z,73.29
2019-04-06T07:59:42.580Z,73.52
2019-04-06T08:02:14.158Z,73.32
2019-04-06T08:04:45.733Z,70.58
2019-04-06T08:07:17.308Z,66.90
2019-04-06T08:09:48.854Z,64.98
2019-04-06T08:12:20.404Z,65.61
2019-04-06T08:14:52.238Z,67.21
2019-04-06T08:17:23.825Z,69.35
2019-04-06T08:19:55.776Z,69.15
2019-04-06T08:22:27.351Z,68.60
2019-04-06T08:24:59.094Z,68.30
2019-04-06T08:27:30.643Z,68.85
2019-04-06T08:30:02.307Z,69.37
2019-04-06T08:32:34.258Z,70.91
2019-04-06T08:35:06.363Z,72.05
2019-04-06T08:37:37.903Z,72.74
2019-04-06T08:40:10.239Z,71.89
2019-04-06T08:42:42.135Z,72.35
2019-04-06T08:45:14.324Z,72.62
2019-04-06T08:47:46.909Z,72.91
2019-04-06T08:50:18.674Z,73.32
2019-04-06T08:52:50.213Z,73.92
2019-04-06T08:55:21.746Z,73.60
2019-04-06T08:57:53.404Z,73.23
2019-04-06T09:00:24.954Z,71.59
2019-04-06T09:02:56.525Z,69.73
2019-04-06T09:05:28.068Z,69.57
2019-04-06T09:07:59.627Z,68.29
2019-04-06T09:10:31.169Z,67.17
2019-04-06T09:13:02.709Z,68.45
2019-04-06T09:15:34.439Z,68.57
2019-04-06T09:18:06.967Z,67.20
2019-04-06T09:20:38.498Z,58.19
2019-04-06T09:23:10.049Z,50.72
2019-04-06T09:25:41.603Z,53.12
2019-04-06T09:28:13.152Z,57.35
2019-04-06T09:30:44.714Z,60.85
2019-04-06T09:33:17.454Z,63.20
2019-04-06T09:35:49.300Z,63.61
2019-04-06T09:38:21.012Z,64.21
2019-04-06T09:40:52.672Z,61.52
2019-04-06T09:43:24.413Z,57.16
2019-04-06T09:46:13.500Z,51.67
2019-04-06T09:48:59.463Z,46.97
2019-04-06T09:52:01.645Z,41.32
2019-04-06T09:54:43.039Z,38.72
2019-04-06T09:57:33.674Z,39.81
2019-04-06T10:00:28.875Z,37.60
2019-04-06T10:03:25.396Z,39.58
2019-04-06T10:06:15.810Z,41.26
2019-04-06T10:09:05.717Z,37.11
2019-04-06T10:11:50.704Z,41.02
2019-04-06T10:14:39.788Z,37.96
2019-04-06T10:17:30.162Z,38.10
2019-04-06T10:20:10.679Z,37.93
2019-04-06T10:23:01.378Z,37.25
2019-04-06T10:25:54.848Z,40.41
2019-04-06T10:28:45.273Z,39.38
2019-04-06T10:31:51.886Z,38.83
2019-04-06T10:34:40.829Z,40.22
2019-04-06T10:37:26.710Z,41.33
2019-04-06T10:40:23.320Z,41.82
2019-04-06T10:43:25.700Z,44.49
2019-04-06T10:46:06.935Z,45.62
2019-04-06T10:48:49.774Z,44.15
2019-04-06T10:51:49.165Z,49.05
2019-04-06T10:54:37.838Z,53.67
2019-04-06T10:57:26.907Z,56.52
2019-04-06T11:00:32.454Z,54.98
2019-04-06T11:03:28.797Z,50.00
2019-04-06T11:06:14.291Z,43.27
2019-04-06T11:08:55.177Z,41.85
2019-04-06T11:11:48.617Z,39.13
2019-04-06T11:14:45.823Z,35.50
2019-04-06T11:17:34.834Z,34.01
2019-04-06T11:20:24.805Z,36.08
2019-04-06T11:23:18.592Z,35.60
2019-04-06T11:26:02.709Z,37.70
2019-04-06T11:28:56.253Z,37.85
2019-04-06T11:31:45.134Z,35.36
2019-04-06T11:34:38.348Z,35.08
2019-04-06T11:37:35.389Z,36.53
2019-04-06T11:40:33.063Z,36.25
2019-04-06T11:43:26.266Z,40.50
2019-04-06T11:46:28.789Z,42.50
2019-04-06T11:49:22.003Z,43.49
2019-04-06T11:52:16.434Z,40.52
2019-04-06T11:55:18.712Z,38.41
2019-04-06T11:58:12.471Z,38.90
2019-04-06T12:00:54.836Z,38.36
2019-04-06T12:03:54.413Z,40.88
2019-04-06T12:06:35.823Z,43.73
2019-04-06T12:09:15.852Z,43.24
2019-04-06T12:12:12.210Z,39.64
2019-04-06T12:15:03.289Z,38.77
2019-04-06T12:17:52.100Z,38.28
2019-04-06T12:20:44.798Z,37.51
2019-04-06T12:23:38.343Z,38.59
2019-04-06T12:26:27.402Z,39.20
2019-04-06T12:29:17.036Z,41.51
2019-04-06T12:32:25.632Z,42.81
2019-04-06T12:35:14.273Z,43.95
2019-04-06T12:37:52.732Z,43.83
2019-04-06T12:40:45.950Z,47.17
2019-04-06T12:43:40.775Z,50.36
2019-04-06T12:46:24.861Z,57.17
2019-04-06T12:49:21.148Z,61.29
2019-04-06T12:52:06.626Z,61.68
2019-04-06T12:55:15.209Z,61.66
2019-04-06T12:58:09.009Z,61.20
2019-04-06T13:00:54.065Z,58.36
2019-04-06T13:03:43.262Z,56.86
2019-04-06T13:06:42.813Z,57.19
2019-04-06T13:09:36.086Z,59.17
2019-04-06T13:12:27.840Z,62.74
2019-04-06T13:15:16.566Z,63.94
2019-04-06T13:17:58.480Z,64.70
2019-04-06T13:21:01.224Z,65.96
2019-04-06T13:23:51.842Z,66.91
2019-04-06T13:26:39.450Z,66.36
2019-04-06T13:29:41.744Z,64.54
2019-04-06T13:32:35.662Z,64.16
2019-04-06T13:35:23.491Z,64.09
2019-04-06T13:38:28.879Z,63.71
2019-04-06T13:41:39.037Z,62.99
2019-04-06T13:44:28.308Z,63.41
2019-04-06T13:47:15.534Z,61.64
2019-04-06T13:50:07.553Z,59.07
2019-04-06T13:52:56.700Z,56.72
2019-04-06T13:56:02.068Z,57.52
2019-04-06T13:58:38.134Z,56.10
2019-04-06T14:01:34.728Z,54.28
2019-04-06T14:04:25.103Z,54.01
2019-04-06T14:07:18.715Z,54.01
2019-04-06T14:10:08.321Z,54.00
2019-04-06T14:12:59.019Z,54.95
2019-04-06T14:15:42.402Z,54.63
2019-04-06T14:18:31.460Z,54.17
2019-04-06T14:21:31.658Z,55.46
2019-04-06T14:24:22.110Z,55.70
2019-04-06T14:27:15.312Z,55.10
2019-04-06T14:30:03.565Z,56.99
2019-04-06T14:32:54.180Z,56.47
2019-04-06T14:35:43.814Z,56.23
2019-04-06T14:38:32.673Z,55.51
2019-04-06T14:41:39.995Z,53.40
2019-04-06T14:44:30.693Z,52.20
2019-04-06T14:47:20.591Z,51.38
2019-04-06T14:49:59.758Z,51.95
2019-04-06T14:52:53.250Z,51.53
2019-04-06T14:55:40.201Z,52.47
2019-04-06T14:58:37.155Z,52.74
2019-04-06T15:01:45.446Z,51.18
2019-04-06T15:04:27.924Z,50.95
2019-04-06T15:07:23.587Z,52.19
2019-04-06T15:10:10.867Z,51.23
2019-04-06T15:12:59.908Z,50.04
2019-04-06T15:15:43.178Z,52.20
2019-04-06T15:18:30.989Z,53.27
2019-04-06T15:21:09.827Z,54.24
2019-04-06T15:24:06.262Z,54.10
2019-04-06T15:26:57.294Z,54.04
2019-04-06T15:29:36.659Z,54.01
2019-04-06T15:32:30.121Z,51.74
2019-04-06T15:35:23.608Z,53.98
2019-04-06T15:38:16.766Z,51.54
2019-04-06T15:41:05.703Z,55.09
2019-04-06T15:43:56.633Z,56.34
2019-04-06T15:46:47.155Z,57.70
2019-04-06T15:49:36.277Z,58.70
2019-04-06T15:52:26.773Z,61.30
2019-04-06T15:55:14.540Z,61.71
2019-04-06T15:57:56.697Z,62.27
2019-04-06T16:00:53.320Z,62.33
2019-04-06T16:03:37.828Z,60.98
2019-04-06T16:06:35.258Z,62.09
2019-04-06T16:09:25.578Z,60.74
2019-04-06T16:12:16.459Z,62.48
2019-04-06T16:15:13.623Z,61.62
2019-04-06T16:18:02.450Z,62.25
2019-04-06T16:20:46.872Z,62.52
2019-04-06T16:23:44.433Z,62.66
2019-04-06T16:26:44.482Z,61.41
2019-04-06T16:29:46.867Z,60.78
2019-04-06T16:32:40.071Z,60.65
2019-04-06T16:35:44.449Z,61.05
2019-04-06T16:38:26.928Z,60.53
2019-04-06T16:41:15.727Z,59.58
2019-04-06T16:43:53.701Z,58.00
2019-04-06T16:46:45.349Z,58.40
2019-04-06T16:49:42.332Z,58.96
2019-04-06T16:52:38.824Z,57.87
2019-04-06T16:55:29.418Z,56.57
2019-04-06T16:58:09.728Z,56.53
2019-04-06T17:01:18.370Z,56.26
2019-04-06T17:04:00.356Z,56.60
2019-04-06T17:06:49.866Z,56.90
2019-04-06T17:09:34.425Z,57.39
2019-04-06T17:12:42.895Z,56.44
2019-04-06T17:15:39.362Z,56.72
2019-04-06T17:18:44.694Z,57.03
2019-04-06T17:21:53.282Z,59.03
2019-04-06T17:24:37.414Z,60.56
2019-04-06T17:27:21.426Z,62.92
2019-04-06T17:30:10.307Z,63.46
2019-04-06T17:32:49.366Z,60.86
2019-04-06T17:35:29.943Z,60.06
2019-04-06T17:38:20.469Z,59.36
2019-04-06T17:41:07.716Z,59.88
2019-04-06T17:44:01.061Z,60.34
2019-04-06T17:47:03.869Z,60.25
2019-04-06T17:49:52.877Z,60.33
2019-04-06T17:52:44.984Z,58.75
2019-04-06T17:55:47.724Z,59.34
2019-04-06T17:58:38.241Z,60.29
2019-04-06T18:01:34.604Z,59.66
2019-04-06T18:04:28.228Z,60.39
2019-04-06T18:07:19.010Z,60.34
2019-04-06T18:10:06.945Z,60.68
2019-04-06T18:12:57.582Z,60.80
2019-04-06T18:15:29.928Z,61.55
2019-04-06T18:18:01.971Z,62.23
2019-04-06T18:20:35.302Z,62.22
2019-04-06T18:23:07.308Z,62.76
2019-04-06T18:25:39.123Z,63.45
2019-04-06T18:28:12.405Z,64.23
2019-04-06T18:30:46.552Z,65.46
2019-04-06T18:33:21.839Z,65.77
2019-04-06T18:35:53.528Z,66.45
2019-04-06T18:38:43.197Z,67.40
2019-04-06T18:41:23.931Z,68.48
2019-04-06T18:43:56.058Z,70.36
2019-04-06T18:46:28.095Z,71.31
2019-04-06T18:48:59.718Z,70.87
2019-04-06T18:51:31.689Z,71.10
2019-04-06T18:54:04.478Z,71.71
2019-04-06T18:57:47.321Z,71.18
2019-04-06T19:00:20.756Z,71.62
2019-04-06T19:02:53.079Z,72.09
2019-04-06T19:05:25.326Z,72.42
2019-04-06T19:09:35.106Z,72.50
2019-04-06T19:12:07.773Z,73.22
2019-04-06T19:14:41.534Z,72.98
2019-04-06T19:17:15.152Z,73.13
2019-04-06T19:19:47.376Z,73.71
2019-04-06T19:22:19.478Z,74.30
2019-04-06T19:24:51.808Z,74.70
2019-04-06T19:27:23.849Z,74.89
2019-04-06T19:29:56.800Z,75.86
2019-04-06T19:32:29.322Z,76.61
2019-04-06T19:35:02.814Z,77.04
2019-04-06T19:37:34.932Z,76.97
2019-04-06T19:40:08.842Z,77.00
2019-04-06T19:42:40.856Z,77.10
2019-04-06T19:45:13.550Z,77.38
2019-04-06T19:47:46.108Z,77.41
2019-04-06T19:50:18.683Z,77.72
2019-04-06T19:52:51.690Z,78.18
2019-04-06T19:55:24.600Z,78.54
2019-04-06T19:57:57.143Z,78.74
2019-04-06T20:00:30.085Z,79.18
2019-04-06T20:03:02.373Z,79.44
2019-04-06T20:05:34.632Z,79.69
2019-04-06T20:08:07.143Z,79.73
2019-04-06T20:10:39.680Z,79.78
2019-04-06T20:13:12.096Z,79.87
2019-04-06T20:15:44.347Z,79.93
2019-04-06T20:18:16.318Z,80.23
2019-04-06T20:20:48.381Z,80.47
2019-04-06T20:23:20.464Z,80.67
2019-04-06T20:25:52.997Z,80.97
2019-04-06T20:28:25.103Z,81.24
2019-04-06T20:30:57.511Z,81.38
2019-04-06T20:33:29.615Z,81.35
2019-04-06T20:36:02.920Z,81.27
2019-04-06T20:38:34.918Z,81.19
2019-04-06T20:41:07.071Z,81.12
2019-04-06T20:43:39.554Z,81.13
2019-04-06T20:59:58.494Z,80.42
2019-04-06T21:02:32.497Z,80.47
2019-04-06T21:05:05.554Z,80.50
2019-04-06T21:07:39.168Z,80.57
2019-04-06T21:10:13.818Z,80.70
2019-04-06T21:12:45.977Z,80.65
2019-04-06T21:15:21.061Z,80.60
2019-04-06T21:17:53.375Z,80.47
2019-04-06T21:20:26.516Z,80.48
2019-04-06T21:22:59.517Z,80.45
2019-04-06T21:25:33.846Z,80.51
2019-04-06T21:28:06.568Z,80.52
2019-04-06T21:30:39.075Z,80.44
2019-04-06T21:33:12.102Z,80.30
2019-04-06T21:35:44.705Z,80.19
2019-04-06T21:38:17.106Z,80.14
2019-04-06T21:40:49.366Z,80.36
2019-04-06T21:43:21.437Z,80.40
2019-04-06T21:45:54.828Z,80.38
2019-04-06T21:48:27.070Z,80.31
2019-04-06T21:51:00.043Z,80.31
2019-04-06T21:53:34.572Z,80.96
2019-04-06T21:56:08.274Z,81.14
2019-04-06T21:58:40.669Z,80.53
2019-04-06T22:01:15.549Z,80.19
2019-04-06T22:03:51.033Z,79.40
2019-04-06T22:06:24.991Z,78.57
2019-04-06T22:08:56.929Z,78.49
2019-04-06T22:11:29.024Z,78.96
2019-04-06T22:14:02.471Z,79.41
2019-04-06T22:16:35.329Z,79.74
2019-04-06T22:19:07.956Z,79.46
2019-04-06T22:21:40.134Z,79.31
2019-04-06T22:24:12.533Z,79.31
2019-04-06T22:26:45.100Z,79.38
2019-04-06T22:29:17.408Z,79.73
2019-04-06T22:31:49.537Z,79.84
2019-04-06T22:34:21.811Z,80.43
2019-04-06T22:36:53.929Z,80.77
2019-04-06T22:39:26.124Z,81.05
2019-04-06T22:41:58.288Z,81.24
2019-04-06T22:44:30.383Z,81.38
2019-04-06T22:47:04.837Z,81.18
2019-04-06T22:49:37.521Z,80.76
2019-04-06T22:52:10.152Z,80.34
2019-04-06T22:54:42.641Z,79.96
2019-04-06T22:57:14.791Z,80.12
2019-04-06T22:59:48.430Z,80.37
2019-04-06T23:02:20.538Z,80.33
2019-04-06T23:05:00.114Z,79.81
2019-04-06T23:07:32.611Z,79.43
2019-04-06T23:10:07.938Z,79.50
2019-04-06T23:12:40.472Z,79.77
2019-04-06T23:15:13.501Z,79.94
2019-04-06T23:17:45.438Z,79.92
2019-04-06T23:20:17.481Z,80.00
2019-04-06T23:22:49.778Z,80.30
2019-04-06T23:25:22.018Z,80.32
2019-04-06T23:27:53.951Z,80.21
2019-04-06T23:30:26.419Z,79.63
2019-04-06T23:32:58.494Z,79.35
2019-04-06T23:35:30.503Z,79.74
2019-04-06T23:38:03.003Z,79.70
2019-04-06T23:40:34.914Z,79.23
2019-04-06T23:43:07.469Z,79.37
2019-04-06T23:45:39.816Z,79.66
2019-04-06T23:48:12.044Z,79.76
2019-04-06T23:50:44.173Z,79.72
2019-04-06T23:53:16.149Z,79.85
2019-04-06T23:55:48.067Z,80.08
2019-04-06T23:58:19.984Z,80.23
